createdAt,value
2018-02-07T00:01:07.545Z,79.70
2018-02-07T00:03:39.221Z,80.10
2018-02-07T00:06:10.642Z,79.60
2018-02-07T00:08:41.499Z,79.50
2018-02-07T00:11:13.238Z,78.80
2018-02-07T00:13:44.794Z,78.70
2018-02-07T00:16:15.667Z,77.30
2018-02-07T00:18:46.468Z,78.50
2018-02-07T00:21:17.441Z,77.90
2018-02-07T00:23:48.350Z,77.10
2018-02-07T00:26:19.382Z,77.70
2018-02-07T00:28:50.173Z,77.00
2018-02-07T00:31:21.055Z,75.40
2018-02-07T00:33:51.967Z,75.60
2018-02-07T00:36:23.764Z,76.00
2018-02-07T00:38:54.630Z,75.90
2018-02-07T00:41:25.530Z,76.60
2018-02-07T00:43:56.347Z,74.90
2018-02-07T00:46:27.365Z,73.90
2018-02-07T00:48:58.239Z,70.00
2018-02-07T00:51:29.129Z,67.30
2018-02-07T00:54:00.141Z,66.70
2018-02-07T00:56:32.528Z,66.20
2018-02-07T00:59:03.285Z,66.10
2018-02-07T01:01:35.065Z,63.40
2018-02-07T01:04:08.341Z,62.00
2018-02-07T01:06:39.189Z,62.30
2018-02-07T01:09:10.098Z,60.80
2018-02-07T01:11:42.038Z,60.80
2018-02-07T01:14:14.613Z,63.40
2018-02-07T01:16:46.059Z,64.40
2018-02-07T01:19:17.834Z,67.80
2018-02-07T01:21:49.218Z,68.10
2018-02-07T01:24:20.061Z,68.10
2018-02-07T01:26:51.479Z,67.50
2018-02-07T01:29:22.298Z,67.70
2018-02-07T01:31:54.873Z,68.40
2018-02-07T01:34:26.934Z,68.60
2018-02-07T01:36:58.801Z,68.70
2018-02-07T01:39:30.487Z,67.90
2018-02-07T01:42:02.109Z,67.90
2018-02-07T01:44:33.856Z,65.90
2018-02-07T01:47:05.494Z,64.00
2018-02-07T01:49:36.073Z,63.90
2018-02-07T01:52:06.706Z,62.80
2018-02-07T01:54:37.390Z,62.40
2018-02-07T01:57:08.246Z,62.80
2018-02-07T01:59:40.278Z,63.20
2018-02-07T02:02:10.950Z,63.20
2018-02-07T02:04:42.609Z,64.10
2018-02-07T02:07:14.561Z,63.50
2018-02-07T02:09:46.237Z,63.60
2018-02-07T02:12:17.009Z,63.60
2018-02-07T02:14:47.724Z,62.80
2018-02-07T02:17:18.450Z,62.90
2018-02-07T02:19:49.030Z,63.40
2018-02-07T02:22:20.535Z,63.50
2018-02-07T02:24:51.430Z,63.20
2018-02-07T02:27:23.111Z,61.20
2018-02-07T02:29:55.546Z,60.20
2018-02-07T02:32:26.254Z,60.20
2018-02-07T02:34:57.141Z,62.10
2018-02-07T02:37:28.829Z,62.10
2018-02-07T02:39:59.834Z,62.10
2018-02-07T02:42:31.387Z,63.20
2018-02-07T02:45:04.241Z,61.30
2018-02-07T02:47:35.154Z,61.20
2018-02-07T02:50:07.002Z,61.50
2018-02-07T02:52:38.270Z,60.90
2018-02-07T02:55:09.798Z,62.00
2018-02-07T02:57:40.707Z,61.10
2018-02-07T03:00:12.365Z,60.40
2018-02-07T03:02:43.929Z,59.40
2018-02-07T03:05:14.592Z,59.40
2018-02-07T03:07:45.558Z,58.90
2018-02-07T03:10:16.963Z,59.80
2018-02-07T03:12:48.726Z,61.00
2018-02-07T03:15:19.517Z,59.60
2018-02-07T03:17:51.945Z,58.90
2018-02-07T03:20:23.123Z,57.90
2018-02-07T03:22:54.421Z,59.80
2018-02-07T03:25:25.216Z,60.50
2018-02-07T03:27:56.026Z,60.10
2018-02-07T03:30:26.882Z,61.60
2018-02-07T03:32:59.271Z,61.30
2018-02-07T03:35:30.139Z,61.00
2018-02-07T03:38:01.037Z,62.50
2018-02-07T03:40:32.581Z,60.20
2018-02-07T03:43:08.893Z,59.70
2018-02-07T03:45:40.229Z,58.70
2018-02-07T03:48:14.467Z,59.40
2018-02-07T03:50:46.268Z,59.30
2018-02-07T03:53:17.098Z,60.00
2018-02-07T03:55:48.127Z,59.70
2018-02-07T03:58:19.630Z,60.60
2018-02-07T04:00:51.801Z,60.40
2018-02-07T04:03:22.562Z,60.40
2018-02-07T04:05:53.367Z,60.30
2018-02-07T04:08:25.042Z,59.70
2018-02-07T04:10:56.585Z,59.70
2018-02-07T04:13:27.550Z,60.00
2018-02-07T04:15:58.297Z,60.60
2018-02-07T04:18:29.386Z,59.80
2018-02-07T04:21:00.815Z,61.20
2018-02-07T04:23:33.233Z,60.40
2018-02-07T04:26:03.789Z,59.70
2018-02-07T04:28:34.718Z,59.20
2018-02-07T04:31:05.644Z,58.20
2018-02-07T04:33:36.529Z,58.70
2018-02-07T04:36:07.418Z,58.00
2018-02-07T04:38:38.030Z,58.80
2018-02-07T04:41:09.666Z,59.30
2018-02-07T04:43:41.342Z,58.60
2018-02-07T04:46:13.270Z,57.50
2018-02-07T04:48:44.257Z,57.50
2018-02-07T04:51:15.102Z,58.10
2018-02-07T04:53:47.729Z,56.70
2018-02-07T04:56:18.673Z,57.20
2018-02-07T04:58:49.497Z,58.00
2018-02-07T05:01:20.241Z,58.50
2018-02-07T05:03:50.966Z,58.80
2018-02-07T05:06:22.532Z,58.30
2018-02-07T05:08:53.339Z,58.30
2018-02-07T05:11:24.009Z,57.20
2018-02-07T05:13:55.555Z,55.80
2018-02-07T05:16:27.150Z,56.20
2018-02-07T05:18:57.958Z,55.70
2018-02-07T05:21:29.475Z,55.10
2018-02-07T05:24:00.248Z,55.00
2018-02-07T05:26:31.934Z,56.30
2018-02-07T05:29:02.761Z,56.30
2018-02-07T05:31:34.573Z,56.20
2018-02-07T05:34:10.628Z,56.70
2018-02-07T05:36:41.370Z,55.70
2018-02-07T05:39:12.654Z,55.90
2018-02-07T05:41:43.438Z,55.60
2018-02-07T05:44:14.907Z,57.10
2018-02-07T05:46:45.857Z,56.50
2018-02-07T05:49:18.103Z,56.90
2018-02-07T05:51:48.662Z,56.90
2018-02-07T05:54:20.270Z,56.70
2018-02-07T05:56:50.971Z,56.70
2018-02-07T05:59:21.877Z,55.90
2018-02-07T06:01:53.836Z,55.90
2018-02-07T06:04:25.877Z,56.70
2018-02-07T06:06:56.600Z,56.70
2018-02-07T06:09:27.274Z,56.30
2018-02-07T06:11:59.546Z,55.10
2018-02-07T06:14:32.814Z,55.20
2018-02-07T06:17:03.747Z,55.20
2018-02-07T06:19:34.489Z,55.00
2018-02-07T06:22:05.306Z,55.30
2018-02-07T06:24:35.967Z,55.90
2018-02-07T06:27:07.628Z,56.70
2018-02-07T06:29:39.412Z,54.90
2018-02-07T06:32:10.274Z,54.90
2018-02-07T06:34:41.165Z,55.20
2018-02-07T06:37:13.330Z,55.20
2018-02-07T06:39:44.581Z,55.50
2018-02-07T06:42:15.926Z,55.50
2018-02-07T06:44:47.435Z,55.30
2018-02-07T06:47:18.177Z,55.30
2018-02-07T06:49:49.007Z,54.70
2018-02-07T06:52:19.966Z,54.60
2018-02-07T06:54:50.911Z,54.10
2018-02-07T06:57:21.739Z,54.30
2018-02-07T06:59:52.441Z,52.90
2018-02-07T07:02:23.406Z,53.10
2018-02-07T07:04:54.232Z,53.00
2018-02-07T07:07:24.762Z,53.00
2018-02-07T07:09:55.630Z,53.20
2018-02-07T07:12:27.372Z,53.50
2018-02-07T07:14:58.305Z,53.50
2018-02-07T07:17:29.334Z,54.20
2018-02-07T07:20:00.172Z,52.70
2018-02-07T07:22:31.073Z,53.50
2018-02-07T07:25:01.666Z,52.60
2018-02-07T07:27:32.499Z,52.60
2018-02-07T07:30:04.364Z,52.60
2018-02-07T07:32:35.963Z,52.40
2018-02-07T07:35:06.935Z,52.30
2018-02-07T07:37:37.746Z,52.60
2018-02-07T07:40:08.603Z,53.80
2018-02-07T07:42:39.416Z,53.40
2018-02-07T07:45:10.307Z,53.90
2018-02-07T07:47:41.927Z,54.30
2018-02-07T07:50:12.879Z,54.30
2018-02-07T07:52:43.379Z,54.30
2018-02-07T07:55:14.339Z,54.90
2018-02-07T07:57:45.192Z,55.20
2018-02-07T08:00:16.018Z,55.60
2018-02-07T08:02:47.423Z,56.30
2018-02-07T08:05:18.622Z,55.60
2018-02-07T08:07:50.495Z,56.30
2018-02-07T08:10:22.195Z,56.70
2018-02-07T08:12:53.773Z,56.60
2018-02-07T08:15:24.459Z,57.10
2018-02-07T08:17:55.994Z,56.80
2018-02-07T08:20:27.446Z,56.90
2018-02-07T08:22:59.381Z,56.80
2018-02-07T08:25:31.127Z,57.30
2018-02-07T08:28:01.623Z,57.30
2018-02-07T08:30:32.114Z,57.10
2018-02-07T08:33:03.635Z,57.30
2018-02-07T08:35:34.097Z,57.20
2018-02-07T08:38:05.039Z,56.50
2018-02-07T08:40:36.680Z,56.10
2018-02-07T08:43:07.562Z,56.00
2018-02-07T08:45:39.576Z,56.90
2018-02-07T08:48:10.691Z,55.90
2018-02-07T08:50:41.462Z,55.50
2018-02-07T08:53:13.127Z,55.20
2018-02-07T08:55:44.750Z,55.30
2018-02-07T08:58:15.842Z,55.20
2018-02-07T09:00:47.631Z,55.30
2018-02-07T09:03:18.554Z,55.30
2018-02-07T09:05:49.859Z,55.30
2018-02-07T09:08:21.507Z,55.50
2018-02-07T09:10:52.618Z,55.40
2018-02-07T09:13:23.586Z,55.70
2018-02-07T09:15:54.233Z,55.60
2018-02-07T09:18:26.646Z,55.30
2018-02-07T09:20:57.533Z,55.30
2018-02-07T09:23:28.321Z,55.90
2018-02-07T09:25:59.303Z,55.90
2018-02-07T09:28:30.187Z,56.00
2018-02-07T09:31:01.285Z,56.20
2018-02-07T09:33:31.986Z,55.90
2018-02-07T09:36:03.463Z,56.10
2018-02-07T09:38:34.454Z,56.10
2018-02-07T09:41:05.148Z,56.00
2018-02-07T09:43:36.911Z,55.60
2018-02-07T09:46:08.666Z,55.40
2018-02-07T09:48:40.246Z,55.60
2018-02-07T09:51:11.160Z,55.50
2018-02-07T09:53:42.918Z,55.60
2018-02-07T09:56:14.537Z,56.00
2018-02-07T09:58:46.709Z,56.00
2018-02-07T10:01:17.565Z,56.40
2018-02-07T10:03:48.310Z,56.60
2018-02-07T10:06:20.147Z,57.10
2018-02-07T10:08:51.006Z,57.10
2018-02-07T10:11:22.498Z,57.70
2018-02-07T10:13:53.403Z,57.60
2018-02-07T10:16:24.962Z,58.20
2018-02-07T10:18:57.293Z,58.40
2018-02-07T10:21:28.273Z,58.40
2018-02-07T10:23:59.609Z,58.50
2018-02-07T10:26:31.138Z,58.70
2018-02-07T10:29:01.876Z,58.70
2018-02-07T10:31:32.806Z,58.90
2018-02-07T10:34:03.623Z,59.20
2018-02-07T10:36:34.490Z,59.50
2018-02-07T10:39:05.381Z,59.70
2018-02-07T10:41:36.247Z,59.50
2018-02-07T10:44:07.017Z,59.80
2018-02-07T10:46:38.635Z,60.10
2018-02-07T10:49:09.490Z,60.00
2018-02-07T10:51:40.329Z,60.40
2018-02-07T10:54:11.166Z,60.40
2018-02-07T10:56:41.682Z,60.90
2018-02-07T10:59:12.492Z,61.10
2018-02-07T11:01:43.204Z,62.00
2018-02-07T11:04:14.211Z,64.00
2018-02-07T11:06:44.954Z,64.40
2018-02-07T11:09:16.627Z,65.00
2018-02-07T11:11:47.521Z,64.90
2018-02-07T11:14:18.290Z,65.90
2018-02-07T11:16:49.827Z,66.40
2018-02-07T11:19:21.381Z,66.30
2018-02-07T11:21:52.835Z,66.30
2018-02-07T11:24:24.593Z,65.60
2018-02-07T11:26:56.163Z,65.30
2018-02-07T11:29:27.894Z,65.70
2018-02-07T11:31:58.618Z,65.70
2018-02-07T11:34:29.089Z,67.60
2018-02-07T11:36:59.574Z,66.30
2018-02-07T11:39:30.058Z,65.60
2018-02-07T11:42:00.957Z,65.70
2018-02-07T11:44:32.694Z,66.30
2018-02-07T11:47:04.529Z,66.40
2018-02-07T11:49:35.250Z,66.30
2018-02-07T11:52:06.151Z,66.60
2018-02-07T11:54:37.781Z,66.80
2018-02-07T11:57:08.666Z,66.80
2018-02-07T11:59:39.701Z,66.40
2018-02-07T12:02:10.599Z,67.20
2018-02-07T12:04:41.542Z,66.00
2018-02-07T12:07:13.421Z,65.00
2018-02-07T12:09:45.200Z,64.10
2018-02-07T12:12:16.671Z,64.10
2018-02-07T12:14:47.409Z,64.40
2018-02-07T12:17:19.326Z,64.70
2018-02-07T12:19:52.538Z,65.30
2018-02-07T12:22:23.430Z,65.20
2018-02-07T12:24:54.215Z,64.70
2018-02-07T12:27:25.464Z,63.50
2018-02-07T12:29:56.788Z,64.20
2018-02-07T12:32:28.525Z,64.30
2018-02-07T12:35:00.381Z,64.50
2018-02-07T12:37:31.355Z,64.40
2018-02-07T12:40:02.174Z,64.40
2018-02-07T12:42:33.866Z,65.20
2018-02-07T12:45:05.175Z,65.20
2018-02-07T12:47:36.899Z,65.90
2018-02-07T12:50:07.786Z,65.90
2018-02-07T12:52:38.771Z,65.90
2018-02-07T12:55:09.774Z,65.90
2018-02-07T12:57:41.606Z,66.70
2018-02-07T13:00:13.289Z,66.30
2018-02-07T13:02:44.823Z,66.30
2018-02-07T13:05:16.586Z,66.20
2018-02-07T13:07:48.146Z,65.70
2018-02-07T13:10:19.085Z,65.70
2018-02-07T13:12:50.182Z,65.70
2018-02-07T13:15:21.603Z,66.00
2018-02-07T13:17:52.575Z,66.00
2018-02-07T13:20:23.546Z,66.30
2018-02-07T13:22:55.474Z,66.80
2018-02-07T13:25:27.237Z,67.00
2018-02-07T13:27:58.940Z,67.00
2018-02-07T13:30:30.321Z,66.80
2018-02-07T13:33:01.174Z,67.00
2018-02-07T13:35:32.409Z,66.80
2018-02-07T13:38:03.788Z,67.10
2018-02-07T13:40:34.805Z,67.30
2018-02-07T13:43:05.930Z,66.40
2018-02-07T13:45:36.787Z,66.20
2018-02-07T13:48:08.131Z,65.90
2018-02-07T13:50:40.054Z,66.40
2018-02-07T13:53:12.020Z,65.60
2018-02-07T13:55:44.886Z,66.00
2018-02-07T13:58:16.320Z,66.90
2018-02-07T14:00:54.971Z,66.80
2018-02-07T14:03:26.122Z,66.80
2018-02-07T14:05:57.466Z,67.30
2018-02-07T14:08:28.619Z,67.40
2018-02-07T14:10:59.922Z,67.60
2018-02-07T14:13:32.864Z,68.60
2018-02-07T14:16:04.277Z,68.60
2018-02-07T14:18:36.854Z,68.20
2018-02-07T14:21:08.339Z,68.80
2018-02-07T14:23:39.502Z,69.10
2018-02-07T14:26:10.738Z,70.30
2018-02-07T14:28:42.058Z,70.50
2018-02-07T14:31:13.518Z,70.80
2018-02-07T14:33:44.878Z,71.50
2018-02-07T14:36:16.186Z,72.10
2018-02-07T14:38:47.353Z,72.40
2018-02-07T14:41:18.577Z,72.00
2018-02-07T14:43:50.010Z,72.80
2018-02-07T14:46:21.955Z,73.20
2018-02-07T14:48:53.056Z,72.50
2018-02-07T14:51:24.185Z,72.70
2018-02-07T14:53:56.027Z,72.70
2018-02-07T14:56:27.994Z,73.20
2018-02-07T14:58:59.915Z,73.20
2018-02-07T15:01:30.914Z,73.20
2018-02-07T15:04:03.039Z,73.50
2018-02-07T15:06:34.410Z,74.30
2018-02-07T15:09:06.777Z,74.90
2018-02-07T15:11:38.796Z,74.60
2018-02-07T15:14:10.158Z,74.50
2018-02-07T15:16:41.432Z,75.20
2018-02-07T15:19:14.286Z,75.80
2018-02-07T15:21:45.378Z,75.70
2018-02-07T15:24:16.557Z,76.30
2018-02-07T15:26:47.825Z,76.10
2018-02-07T15:29:18.994Z,75.60
2018-02-07T15:31:50.893Z,75.50
2018-02-07T15:34:22.845Z,75.40
2018-02-07T15:36:54.370Z,75.40
2018-02-07T15:39:26.299Z,75.20
2018-02-07T15:41:57.498Z,75.20
2018-02-07T15:44:28.724Z,74.90
2018-02-07T15:47:00.714Z,74.30
2018-02-07T15:49:32.877Z,74.20
2018-02-07T15:52:04.149Z,74.60
2018-02-07T15:54:35.234Z,74.10
2018-02-07T15:57:07.099Z,73.90
2018-02-07T15:59:39.037Z,73.90
2018-02-07T16:02:11.132Z,73.90
2018-02-07T16:04:42.851Z,74.40
2018-02-07T16:07:14.028Z,74.40
2018-02-07T16:09:44.978Z,74.90
2018-02-07T16:12:16.512Z,75.80
2018-02-07T16:14:48.565Z,76.00
2018-02-07T16:17:19.341Z,75.90
2018-02-07T16:19:50.175Z,76.70
2018-02-07T16:22:21.067Z,76.10
2018-02-07T16:24:51.924Z,76.00
2018-02-07T16:27:24.374Z,75.50
2018-02-07T16:29:56.054Z,76.00
2018-02-07T16:32:28.531Z,77.10
2018-02-07T16:35:01.843Z,77.60
2018-02-07T16:37:33.037Z,77.60
2018-02-07T16:40:04.086Z,78.20
2018-02-07T16:42:34.934Z,78.50
2018-02-07T16:45:06.998Z,79.30
2018-02-07T16:47:38.083Z,79.30
2018-02-07T16:50:08.922Z,79.50
2018-02-07T16:52:40.070Z,79.80
2018-02-07T16:55:11.302Z,79.80
2018-02-07T16:57:42.238Z,80.10
2018-02-07T17:00:13.260Z,80.70
2018-02-07T17:02:45.591Z,80.30
2018-02-07T17:05:16.559Z,80.20
2018-02-07T17:07:47.509Z,79.40
2018-02-07T17:10:19.293Z,79.00
2018-02-07T17:12:50.274Z,79.00
2018-02-07T17:15:21.398Z,80.70
2018-02-07T17:17:52.346Z,80.50
2018-02-07T17:20:23.318Z,79.20
2018-02-07T17:22:53.977Z,79.90
2018-02-07T17:25:26.166Z,80.50
2018-02-07T17:27:56.981Z,80.10
2018-02-07T17:30:27.993Z,80.20
2018-02-07T17:32:58.810Z,80.20
2018-02-07T17:35:29.897Z,80.00
2018-02-07T17:38:00.667Z,80.50
2018-02-07T17:40:31.529Z,82.00
2018-02-07T17:43:02.526Z,82.00
2018-02-07T17:45:33.546Z,81.90
2018-02-07T17:48:05.196Z,82.00
2018-02-07T17:50:37.151Z,82.00
2018-02-07T17:53:08.887Z,82.10
2018-02-07T17:55:39.814Z,82.10
2018-02-07T17:58:10.525Z,82.20
2018-02-07T18:00:41.502Z,82.20
2018-02-07T18:03:12.477Z,82.20
2018-02-07T18:05:43.378Z,82.20
2018-02-07T18:08:14.131Z,82.40
2018-02-07T18:10:45.456Z,83.30
2018-02-07T18:13:15.998Z,83.20
2018-02-07T18:15:47.678Z,84.30
2018-02-07T18:18:19.394Z,84.50
2018-02-07T18:20:50.610Z,84.50
2018-02-07T18:23:21.426Z,84.10
2018-02-07T18:25:53.037Z,84.10
2018-02-07T18:28:23.798Z,84.50
2018-02-07T18:30:55.534Z,84.20
2018-02-07T18:33:26.766Z,84.10
2018-02-07T18:35:57.527Z,84.40
2018-02-07T18:38:29.066Z,85.00
2018-02-07T18:41:00.012Z,84.90
2018-02-07T18:43:31.558Z,84.80
2018-02-07T18:46:02.482Z,84.60
2018-02-07T18:48:33.422Z,84.30
2018-02-07T18:51:04.283Z,84.30
2018-02-07T18:53:36.037Z,85.90
2018-02-07T18:56:07.926Z,85.90
2018-02-07T18:58:38.845Z,85.20
2018-02-07T19:01:10.466Z,85.10
2018-02-07T19:03:41.330Z,85.10
2018-02-07T19:06:12.762Z,85.60
2018-02-07T19:08:43.706Z,85.20
2018-02-07T19:11:15.454Z,86.10
2018-02-07T19:13:46.413Z,86.10
2018-02-07T19:16:18.218Z,86.80
2018-02-07T19:18:49.125Z,86.40
2018-02-07T19:21:20.734Z,86.10
2018-02-07T19:23:51.614Z,86.10
2018-02-07T19:26:23.208Z,85.60
2018-02-07T19:28:54.062Z,85.60
2018-02-07T19:31:24.982Z,85.80
2018-02-07T19:33:55.862Z,85.90
2018-02-07T19:36:27.574Z,86.60
2018-02-07T19:38:58.581Z,86.60
2018-02-07T19:41:30.122Z,85.10
2018-02-07T19:44:01.791Z,85.90
2018-02-07T19:46:34.130Z,86.30
2018-02-07T19:49:04.969Z,86.20
2018-02-07T19:51:35.710Z,85.90
2018-02-07T19:54:09.002Z,85.80
2018-02-07T19:56:40.498Z,85.80
2018-02-07T19:59:11.514Z,85.80
2018-02-07T20:01:43.034Z,85.70
2018-02-07T20:04:14.026Z,85.60
2018-02-07T20:06:44.605Z,85.60
2018-02-07T20:09:15.575Z,85.90
2018-02-07T20:11:47.327Z,86.20
2018-02-07T20:14:19.063Z,85.90
2018-02-07T20:16:50.336Z,85.90
2018-02-07T20:19:21.790Z,86.30
2018-02-07T20:21:53.347Z,86.20
2018-02-07T20:24:24.955Z,86.10
2018-02-07T20:26:55.746Z,86.10
2018-02-07T20:29:26.199Z,86.50
2018-02-07T20:31:57.013Z,86.80
2018-02-07T20:34:28.029Z,86.80
2018-02-07T20:36:59.527Z,87.30
2018-02-07T20:39:30.526Z,87.20
2018-02-07T20:42:02.154Z,87.60
2018-02-07T20:44:33.130Z,87.40
2018-02-07T20:47:04.522Z,87.40
2018-02-07T20:49:35.383Z,87.40
2018-02-07T20:52:06.094Z,87.30
2018-02-07T20:54:36.890Z,87.70
2018-02-07T20:57:07.726Z,87.70
2018-02-07T20:59:38.639Z,88.00
2018-02-07T21:02:10.302Z,87.90
2018-02-07T21:04:42.074Z,87.70
2018-02-07T21:07:13.817Z,87.90
2018-02-07T21:09:45.613Z,88.20
2018-02-07T21:12:17.996Z,88.20
2018-02-07T21:14:48.917Z,87.80
2018-02-07T21:17:19.490Z,87.20
2018-02-07T21:19:50.589Z,87.70
2018-02-07T21:22:22.419Z,88.40
2018-02-07T21:24:54.142Z,89.10
2018-02-07T21:27:24.997Z,89.10
2018-02-07T21:29:55.846Z,89.00
2018-02-07T21:32:27.569Z,89.00
2018-02-07T21:34:58.511Z,89.00
2018-02-07T21:37:29.194Z,88.80
2018-02-07T21:40:00.190Z,88.50
2018-02-07T21:42:32.022Z,88.20
2018-02-07T21:45:02.981Z,88.20
2018-02-07T21:47:33.810Z,87.60
2018-02-07T21:50:04.783Z,87.30
2018-02-07T21:52:35.593Z,87.10
2018-02-07T21:55:06.558Z,87.30
2018-02-07T21:57:38.213Z,87.10
2018-02-07T22:00:10.884Z,86.50
2018-02-07T22:02:42.358Z,86.30
2018-02-07T22:05:14.005Z,86.70
2018-02-07T22:07:45.746Z,87.00
2018-02-07T22:10:17.554Z,86.90
2018-02-07T22:12:48.561Z,87.50
2018-02-07T22:15:20.518Z,87.00
2018-02-07T22:17:52.202Z,88.10
2018-02-07T22:20:22.945Z,87.40
2018-02-07T22:22:53.842Z,87.40
2018-02-07T22:25:25.097Z,88.30
2018-02-07T22:27:57.174Z,87.90
2018-02-07T22:30:27.977Z,87.90
2018-02-07T22:32:59.734Z,88.10
2018-02-07T22:35:31.068Z,88.10
2018-02-07T22:38:02.362Z,88.10
2018-02-07T22:40:34.023Z,88.10
2018-02-07T22:43:05.469Z,88.10
2018-02-07T22:45:36.909Z,88.30
2018-02-07T22:48:08.506Z,88.30
2018-02-07T22:50:39.604Z,88.30
2018-02-07T22:53:11.782Z,88.10
2018-02-07T22:55:43.437Z,87.30
2018-02-07T22:58:15.063Z,87.40
2018-02-07T23:00:45.822Z,87.40
2018-02-07T23:03:17.559Z,87.50
2018-02-07T23:05:48.501Z,87.40
2018-02-07T23:08:19.434Z,87.70
2018-02-07T23:10:51.098Z,88.30
2018-02-07T23:13:22.029Z,88.40
2018-02-07T23:15:52.702Z,88.00
2018-02-07T23:18:24.470Z,87.70
2018-02-07T23:20:55.962Z,86.70
2018-02-07T23:23:27.852Z,86.80
2018-02-07T23:25:59.718Z,87.50
2018-02-07T23:28:32.626Z,88.40
2018-02-07T23:31:03.693Z,88.30
2018-02-07T23:33:34.626Z,88.10
2018-02-07T23:36:05.642Z,88.00
2018-02-07T23:38:36.429Z,87.40
2018-02-07T23:41:07.301Z,87.30
2018-02-07T23:43:38.843Z,87.60
2018-02-07T23:46:10.471Z,87.30
2018-02-07T23:48:41.815Z,87.30
2018-02-07T23:51:12.785Z,87.30
2018-02-07T23:53:44.359Z,87.60
2018-02-07T23:56:15.182Z,87.50
2018-02-07T23:58:46.853Z,86.90
